^^
Meteo Knjazevac Station Historical Data
Daily Summary for July 01, 2022 Units:  Metric    English   Both
Daily Weekly Monthly Yearly Custom
  High: Low: Average:
Temperature: 36.1 °C 16.4 °C 24.5 °C
Dew Point: 22.6 °C 15.6 °C 18.8 °C
Humidity: 96% 37% 75%
Wind Speed: 11.3km/h 0km/h 2.4km/h
Wind Gust: 17.7km/h - -
Wind- - SSW
Pressure: 1017.5 hPa 1014.8 hPa -
Precipitation: 0 mm    
Historical Graphs
 
 
Tabular Data for July 01, 2022
Time Temperature Dew Point Pressure Wind Wind Speed Wind Gust Humidity Rainfall Rate (Hourly) solar Conditions
00:00 20.8 °C 18.2 °C 1015.8 hPa NW 1.6 km/h 3.2 km/h 85% 0 mm 0 W/m2
00:10 20.5 °C 18.1 °C 1015.8 hPa Calm   3.2 km/h 86% 0 mm 0 W/m2
00:30 19.9 °C 17.8 °C 1015.8 hPa WNW 1.6 km/h 4.8 km/h 88% 0 mm 0 W/m2
00:40 19.8 °C 17.8 °C 1015.8 hPa WNW 1.6 km/h 4.8 km/h 88% 0 mm 0 W/m2
00:50 19.6 °C 17.6 °C 1015.8 hPa Calm   4.8 km/h 88% 0 mm 0 W/m2
01:00 19.4 °C 17.3 °C 1015.8 hPa West 3.2 km/h 4.8 km/h 88% 0 mm 0 W/m2
01:10 19.2 °C 17.3 °C 1015.8 hPa West 4.8 km/h 11.3 km/h 89% 0 mm 0 W/m2
01:20 19.1 °C 17.2 °C 1015.8 hPa West 3.2 km/h 6.4 km/h 89% 0 mm 0 W/m2
01:30 19 °C 17.1 °C 1016.1 hPa WSW 1.6 km/h 4.8 km/h 89% 0 mm 0 W/m2
01:40 18.8 °C 16.9 °C 1016.1 hPa WNW 1.6 km/h 3.2 km/h 89% 0 mm 0 W/m2
01:50 18.7 °C 17 °C 1016.1 hPa WNW 1.6 km/h 3.2 km/h 90% 0 mm 0 W/m2
02:00 18.6 °C 16.9 °C 1016.1 hPa Calm   6.4 km/h 90% 0 mm 0 W/m2
02:10 18.5 °C 16.8 °C 1016.1 hPa WNW 1.6 km/h 4.8 km/h 90% 0 mm 0 W/m2
02:20 18.3 °C 16.8 °C 1016.1 hPa West 1.6 km/h 4.8 km/h 91% 0 mm 0 W/m2
02:30 18.1 °C 16.6 °C 1016.1 hPa West 3.2 km/h 4.8 km/h 91% 0 mm 0 W/m2
02:40 18 °C 16.5 °C 1016.1 hPa SW 1.6 km/h 4.8 km/h 91% 0 mm 0 W/m2
02:50 17.8 °C 16.3 °C 1016.1 hPa NW 1.6 km/h 3.2 km/h 91% 0 mm 0 W/m2
03:00 17.7 °C 16.6 °C 1016.5 hPa Calm   3.2 km/h 93% 0 mm 0 W/m2
03:10 17.7 °C 16.6 °C 1016.1 hPa Calm   3.2 km/h 93% 0 mm 0 W/m2
03:30 17.4 °C 16.3 °C 1016.5 hPa West 1.6 km/h 3.2 km/h 93% 0 mm 0 W/m2
03:40 17.3 °C 16.2 °C 1016.5 hPa WNW 1.6 km/h 4.8 km/h 93% 0 mm 0 W/m2
03:50 17.2 °C 16.2 °C 1016.5 hPa WNW 3.2 km/h 4.8 km/h 94% 0 mm 0 W/m2
04:00 17.1 °C 15.9 °C 1016.8 hPa West 1.6 km/h 3.2 km/h 93% 0 mm 0 W/m2
04:10 17.1 °C 16.1 °C 1016.8 hPa WNW 1.6 km/h 4.8 km/h 94% 0 mm 0 W/m2
04:20 17 °C 16 °C 1016.8 hPa West 4.8 km/h 8 km/h 94% 0 mm 0 W/m2
04:30 16.8 °C 15.8 °C 1016.8 hPa West 3.2 km/h 8 km/h 94% 0 mm 0 W/m2
04:40 16.8 °C 15.8 °C 1016.8 hPa WNW 1.6 km/h 6.4 km/h 94% 0 mm 0 W/m2
04:50 16.7 °C 15.7 °C 1016.8 hPa WSW 3.2 km/h 3.2 km/h 94% 0 mm 0 W/m2
05:00 16.5 °C 15.7 °C 1016.8 hPa West 3.2 km/h 8 km/h 95% 0 mm 6 W/m2
05:10 16.5 °C 15.8 °C 1016.8 hPa West 4.8 km/h 8 km/h 96% 0 mm 11 W/m2
05:20 16.5 °C 15.7 °C 1017.2 hPa West 3.2 km/h 9.7 km/h 95% 0 mm 19 W/m2
05:30 16.5 °C 15.7 °C 1017.2 hPa Calm   8 km/h 95% 0 mm 27 W/m2
05:40 16.5 °C 15.7 °C 1017.2 hPa Calm   3.2 km/h 95% 0 mm 33 W/m2
05:50 16.4 °C 15.6 °C 1017.2 hPa WSW 1.6 km/h 4.8 km/h 95% 0 mm 46 W/m2
06:00 16.5 °C 15.7 °C 1017.2 hPa West 1.6 km/h 4.8 km/h 95% 0 mm 85 W/m2
06:10 16.6 °C 15.9 °C 1017.2 hPa WNW 1.6 km/h 6.4 km/h 96% 0 mm 67 W/m2
06:20 16.7 °C 15.9 °C 1017.2 hPa West 1.6 km/h 3.2 km/h 95% 0 mm 130 W/m2
06:30 16.8 °C 16 °C 1017.2 hPa Calm   3.2 km/h 95% 0 mm 154 W/m2
06:40 16.9 °C 16.3 °C 1017.2 hPa West 1.6 km/h 3.2 km/h 96% 0 mm 179 W/m2
07:00 17.6 °C 16.9 °C 1017.2 hPa Calm   3.2 km/h 96% 0 mm 241 W/m2
07:10 18 °C 17.3 °C 1017.5 hPa Calm   4.8 km/h 96% 0 mm 273 W/m2
07:20 18.3 °C 17.5 °C 1017.5 hPa NW 1.6 km/h 4.8 km/h 95% 0 mm 308 W/m2
07:30 18.7 °C 17.7 °C 1017.5 hPa Calm   3.2 km/h 94% 0 mm 344 W/m2
07:40 19.1 °C 18 °C 1017.5 hPa SW 1.6 km/h 3.2 km/h 93% 0 mm 377 W/m2
08:00 20.1 °C 18.6 °C 1017.5 hPa Calm   3.2 km/h 91% 0 mm 438 W/m2
08:10 20.6 °C 18.8 °C 1017.5 hPa North 1.6 km/h 8 km/h 90% 0 mm 472 W/m2
08:20 21.4 °C 19.6 °C 1017.5 hPa North 4.8 km/h 8 km/h 89% 0 mm 505 W/m2
08:30 22.6 °C 19.4 °C 1017.5 hPa North 1.6 km/h 8 km/h 82% 0 mm 537 W/m2
08:40 23.6 °C 19.8 °C 1017.5 hPa NE 1.6 km/h 9.7 km/h 79% 0 mm 568 W/m2
08:50 24.6 °C 20.4 °C 1017.5 hPa ENE 1.6 km/h 4.8 km/h 78% 0 mm 600 W/m2
09:00 25.4 °C 20.7 °C 1017.5 hPa NNW 1.6 km/h 6.4 km/h 75% 0 mm 632 W/m2
09:10 26.2 °C 21 °C 1017.5 hPa West 1.6 km/h 4.8 km/h 73% 0 mm 661 W/m2
09:20 26.9 °C 21.4 °C 1017.5 hPa WSW 1.6 km/h 3.2 km/h 72% 0 mm 689 W/m2
09:30 27.6 °C 21.4 °C 1017.2 hPa West 1.6 km/h 4.8 km/h 69% 0 mm 714 W/m2
09:40 28.1 °C 21.6 °C 1017.2 hPa NNE 3.2 km/h 8 km/h 68% 0 mm 744 W/m2
09:50 28.6 °C 21.9 °C 1017.2 hPa NE 1.6 km/h 8 km/h 67% 0 mm 769 W/m2
10:00 29 °C 21.8 °C 1017.2 hPa North 1.6 km/h 8 km/h 65% 0 mm 790 W/m2
10:10 29.4 °C 21.9 °C 1017.2 hPa North 1.6 km/h 9.7 km/h 64% 0 mm 813 W/m2
10:20 29.8 °C 21.7 °C 1017.2 hPa Calm   4.8 km/h 62% 0 mm 833 W/m2
10:30 30.2 °C 22.6 °C 1017.2 hPa WNW 1.6 km/h 6.4 km/h 64% 0 mm 854 W/m2
10:50 30.8 °C 21.8 °C 1017.2 hPa ESE 1.6 km/h 8 km/h 59% 0 mm 657 W/m2
11:00 31.1 °C 21.6 °C 1017.2 hPa NNE 1.6 km/h 8 km/h 57% 0 mm 913 W/m2
11:10 31.4 °C 22.2 °C 1016.8 hPa NE 4.8 km/h 9.7 km/h 58% 0 mm 926 W/m2
11:20 31.7 °C 20.9 °C 1016.8 hPa NE 1.6 km/h 9.7 km/h 53% 0 mm 146 W/m2
11:30 31.9 °C 21.7 °C 1016.8 hPa West 1.6 km/h 12.9 km/h 55% 0 mm 947 W/m2
11:40 32.2 °C 21.4 °C 1016.8 hPa NE 1.6 km/h 8 km/h 53% 0 mm 955 W/m2
11:50 32.6 °C 22.1 °C 1016.8 hPa NNE 4.8 km/h 9.7 km/h 54% 0 mm 963 W/m2
12:10 33.2 °C 22 °C 1016.5 hPa NNE 4.8 km/h 11.3 km/h 52% 0 mm 348 W/m2
12:20 33.4 °C 20.9 °C 1016.5 hPa NNE 4.8 km/h 11.3 km/h 48% 0 mm 248 W/m2
12:30 33.5 °C 21 °C 1016.5 hPa NNE 8 km/h 12.9 km/h 48% 0 mm 717 W/m2
12:40 33.7 °C 21.2 °C 1016.1 hPa North 3.2 km/h 9.7 km/h 48% 0 mm 279 W/m2
12:50 34.1 °C 20.5 °C 1016.1 hPa North 4.8 km/h 11.3 km/h 45% 0 mm 405 W/m2
13:10 34.4 °C 19.3 °C 1016.1 hPa South 1.6 km/h 9.7 km/h 41% 0 mm 965 W/m2
13:20 34.7 °C 19.9 °C 1015.8 hPa ESE 4.8 km/h 11.3 km/h 42% 0 mm 958 W/m2
13:30 34.8 °C 19.6 °C 1015.8 hPa East 4.8 km/h 11.3 km/h 41% 0 mm 951 W/m2
13:50 35.1 °C 19.9 °C 1015.5 hPa North 1.6 km/h 9.7 km/h 41% 0 mm 930 W/m2
14:00 35.2 °C 20.7 °C 1015.5 hPa East 3.2 km/h 9.7 km/h 43% 0 mm 918 W/m2
14:10 35.2 °C 20.7 °C 1015.5 hPa NE 3.2 km/h 17.7 km/h 43% 0 mm 905 W/m2
14:20 35.5 °C 21 °C 1015.5 hPa North 3.2 km/h 11.3 km/h 43% 0 mm 890 W/m2
14:30 35.7 °C 20.8 °C 1015.1 hPa Calm   8 km/h 42% 0 mm 873 W/m2
14:40 35.8 °C 21.3 °C 1015.1 hPa NE 11.3 km/h 16.1 km/h 43% 0 mm 856 W/m2
14:50 35.7 °C 18.7 °C 1015.1 hPa ESE 3.2 km/h 11.3 km/h 37% 0 mm 837 W/m2
15:00 35.6 °C 19.5 °C 1015.1 hPa South 3.2 km/h 9.7 km/h 39% 0 mm 817 W/m2
15:10 35.8 °C 20.9 °C 1015.1 hPa NNE 3.2 km/h 9.7 km/h 42% 0 mm 796 W/m2
15:20 35.9 °C 21.4 °C 1015.1 hPa ENE 4.8 km/h 11.3 km/h 43% 0 mm 774 W/m2
15:30 36 °C 21.4 °C 1014.8 hPa East 8 km/h 9.7 km/h 43% 0 mm 751 W/m2
15:40 36.1 °C 22.2 °C 1014.8 hPa NNE 4.8 km/h 9.7 km/h 45% 0 mm 727 W/m2
16:10 35.9 °C 22.1 °C 1014.8 hPa NW 4.8 km/h 14.5 km/h 45% 0 mm 649 W/m2
Knjazevac, Serbia
Compliments of Weather Underground - 2 mb